createdAt,value
2022-10-14T00:00:08.293Z,4.10
2022-10-14T00:01:08.287Z,4.40
2022-10-14T00:02:08.308Z,3.90
2022-10-14T00:03:08.283Z,4.30
2022-10-14T00:04:08.250Z,3.80
2022-10-14T00:05:08.242Z,3.40
2022-10-14T00:06:08.228Z,3.90
2022-10-14T00:07:08.221Z,4.40
2022-10-14T00:08:08.212Z,4.10
2022-10-14T00:09:08.214Z,4.60
2022-10-14T00:10:08.185Z,4.00
2022-10-14T00:11:08.180Z,3.90
2022-10-14T00:12:08.167Z,4.40
2022-10-14T00:13:08.158Z,4.40
2022-10-14T00:14:08.148Z,4.10
2022-10-14T00:15:08.146Z,3.90
2022-10-14T00:16:08.125Z,4.00
2022-10-14T00:17:08.124Z,3.50
2022-10-14T00:18:08.117Z,3.80
2022-10-14T00:19:08.100Z,3.80
2022-10-14T00:20:08.103Z,3.50
2022-10-14T00:21:08.087Z,3.40
2022-10-14T00:22:08.062Z,4.10
2022-10-14T00:23:08.055Z,4.10
2022-10-14T00:24:08.040Z,4.90
2022-10-14T00:25:08.043Z,3.80
2022-10-14T00:26:08.024Z,3.90
2022-10-14T00:27:08.015Z,4.30
2022-10-14T00:28:08.004Z,4.00
2022-10-14T00:29:07.994Z,3.80
2022-10-14T00:30:07.988Z,4.40
2022-10-14T00:31:07.971Z,4.20
2022-10-14T00:32:07.963Z,3.80
2022-10-14T00:33:07.949Z,4.00
2022-10-14T00:34:07.954Z,3.90
2022-10-14T00:35:07.938Z,3.60
2022-10-14T00:36:07.925Z,4.20
2022-10-14T00:37:07.906Z,3.70
2022-10-14T00:38:07.924Z,3.60
2022-10-14T00:39:07.888Z,3.80
2022-10-14T00:40:07.878Z,4.00
2022-10-14T00:41:07.864Z,3.50
2022-10-14T00:42:07.853Z,4.50
2022-10-14T00:43:07.847Z,3.60
2022-10-14T00:44:07.840Z,4.20
2022-10-14T00:45:07.825Z,3.50
2022-10-14T00:46:07.810Z,3.80
2022-10-14T00:47:07.802Z,3.90
2022-10-14T00:48:07.788Z,4.00
2022-10-14T00:49:07.794Z,3.60
2022-10-14T00:50:07.769Z,3.70
2022-10-14T00:51:07.761Z,3.60
2022-10-14T00:52:07.747Z,3.80
2022-10-14T00:53:07.742Z,3.40
2022-10-14T00:54:07.739Z,3.90
2022-10-14T00:55:07.796Z,4.10
2022-10-14T00:56:07.704Z,4.50
2022-10-14T00:57:07.697Z,4.00
2022-10-14T00:58:07.683Z,4.40
2022-10-14T00:59:07.685Z,4.10
2022-10-14T01:00:07.664Z,4.20
2022-10-14T01:01:07.707Z,4.40
2022-10-14T01:02:07.643Z,4.20
2022-10-14T01:03:07.632Z,4.30
2022-10-14T01:04:07.628Z,3.80
2022-10-14T01:05:07.610Z,4.60
2022-10-14T01:06:07.600Z,4.20
2022-10-14T01:07:07.590Z,4.40
2022-10-14T01:08:07.690Z,4.10
2022-10-14T01:09:07.580Z,4.10
2022-10-14T01:10:07.556Z,4.20
2022-10-14T01:11:07.549Z,4.00
2022-10-14T01:12:27.929Z,4.30
2022-10-14T01:13:07.532Z,4.30
2022-10-14T01:14:07.515Z,4.30
2022-10-14T01:15:07.519Z,4.30
2022-10-14T01:16:07.502Z,4.10
2022-10-14T01:17:07.488Z,4.40
2022-10-14T01:18:07.475Z,4.70
2022-10-14T01:19:07.467Z,4.50
2022-10-14T01:20:07.456Z,3.80
2022-10-14T01:21:07.464Z,3.90
2022-10-14T01:22:07.527Z,4.50
2022-10-14T01:23:07.536Z,4.30
2022-10-14T01:24:07.413Z,5.50
2022-10-14T01:25:07.402Z,4.30
2022-10-14T01:26:07.392Z,4.40
2022-10-14T01:27:07.403Z,4.20
2022-10-14T01:28:07.365Z,3.70
2022-10-14T01:29:07.357Z,3.70
2022-10-14T01:30:07.347Z,3.60
2022-10-14T01:31:07.341Z,3.70
2022-10-14T01:32:07.323Z,3.20
2022-10-14T01:33:07.325Z,4.10
2022-10-14T01:34:07.313Z,3.50
2022-10-14T01:35:07.293Z,3.40
2022-10-14T01:36:07.281Z,3.40
2022-10-14T01:37:07.283Z,3.40
2022-10-14T01:38:07.269Z,3.40
2022-10-14T01:39:07.262Z,3.60
2022-10-14T01:40:07.240Z,3.60
2022-10-14T01:41:07.230Z,3.60
2022-10-14T01:42:07.215Z,3.60
2022-10-14T01:43:07.218Z,3.80
2022-10-14T01:44:07.194Z,3.50
2022-10-14T01:45:07.185Z,3.60
2022-10-14T01:46:07.173Z,3.90
2022-10-14T01:47:07.180Z,3.60
2022-10-14T01:48:07.162Z,3.40
2022-10-14T01:49:07.162Z,3.20
2022-10-14T01:50:07.133Z,4.10
2022-10-14T01:51:07.127Z,3.30
2022-10-14T01:52:07.123Z,3.70
2022-10-14T01:53:07.113Z,3.90
2022-10-14T01:54:07.089Z,3.60
2022-10-14T01:55:07.080Z,3.90
2022-10-14T01:56:07.065Z,3.70
2022-10-14T01:57:07.076Z,3.80
2022-10-14T01:58:07.042Z,3.80
2022-10-14T01:59:07.044Z,4.30
2022-10-14T02:00:07.031Z,4.50
2022-10-14T02:01:07.026Z,4.40
2022-10-14T02:02:07.116Z,4.60
2022-10-14T02:03:06.994Z,3.90
2022-10-14T02:04:06.987Z,4.60
2022-10-14T02:05:06.973Z,4.00
2022-10-14T02:06:06.968Z,4.40
2022-10-14T02:07:06.960Z,4.00
2022-10-14T02:08:06.949Z,4.00
2022-10-14T02:09:06.931Z,3.40
2022-10-14T02:10:06.915Z,3.70
2022-10-14T02:11:06.908Z,3.70
2022-10-14T02:12:06.894Z,3.70
2022-10-14T02:13:06.897Z,3.90
2022-10-14T02:14:06.873Z,4.10
2022-10-14T02:15:06.864Z,4.10
2022-10-14T02:16:06.851Z,3.40
2022-10-14T02:17:06.843Z,3.50
2022-10-14T02:18:06.840Z,3.80
2022-10-14T02:19:06.841Z,4.20
2022-10-14T02:20:06.810Z,4.30
2022-10-14T02:21:06.799Z,3.80
2022-10-14T02:22:06.787Z,4.00
2022-10-14T02:23:06.778Z,3.90
2022-10-14T02:24:06.762Z,4.00
2022-10-14T02:25:06.768Z,4.00
2022-10-14T02:26:06.745Z,3.70
2022-10-14T02:27:06.737Z,4.10
2022-10-14T02:28:06.723Z,3.70
2022-10-14T02:29:06.725Z,3.50
2022-10-14T02:30:06.705Z,4.20
2022-10-14T02:31:06.696Z,4.00
2022-10-14T02:32:06.689Z,4.00
2022-10-14T02:33:06.678Z,3.70
2022-10-14T02:34:06.672Z,3.70
2022-10-14T02:35:06.653Z,3.70
2022-10-14T02:36:06.639Z,4.00
2022-10-14T02:37:06.631Z,3.70
2022-10-14T02:38:06.614Z,3.90
2022-10-14T02:39:06.621Z,3.40
2022-10-14T02:40:06.595Z,3.80
2022-10-14T02:41:06.586Z,3.40
2022-10-14T02:42:06.574Z,3.90
2022-10-14T02:43:06.566Z,3.50
2022-10-14T02:44:06.553Z,3.50
2022-10-14T02:45:06.552Z,3.60
2022-10-14T02:46:06.532Z,5.10
2022-10-14T02:47:06.534Z,3.50
2022-10-14T02:48:06.510Z,3.40
2022-10-14T02:49:06.504Z,3.50
2022-10-14T02:50:06.504Z,3.90
2022-10-14T02:51:06.488Z,3.90
2022-10-14T02:52:06.465Z,4.20
2022-10-14T02:53:06.459Z,4.00
2022-10-14T02:54:06.446Z,4.20
2022-10-14T02:55:06.456Z,3.90
2022-10-14T02:56:06.434Z,3.90
2022-10-14T02:57:06.431Z,4.20
2022-10-14T02:58:06.407Z,4.60
2022-10-14T02:59:06.399Z,4.00
2022-10-14T03:00:06.384Z,4.20
2022-10-14T03:01:06.377Z,3.70
2022-10-14T03:02:06.403Z,4.30
2022-10-14T03:03:06.368Z,4.10
2022-10-14T03:04:06.338Z,4.00
2022-10-14T03:05:06.331Z,4.50
2022-10-14T03:06:06.314Z,4.10
2022-10-14T03:07:06.370Z,4.30
2022-10-14T03:08:06.296Z,4.00
2022-10-14T03:09:06.298Z,4.20
2022-10-14T03:10:06.277Z,4.00
2022-10-14T03:11:06.268Z,4.10
2022-10-14T03:12:06.264Z,4.90
2022-10-14T03:13:06.248Z,3.90
2022-10-14T03:14:06.234Z,4.20
2022-10-14T03:15:06.225Z,4.40
2022-10-14T03:16:06.223Z,3.70
2022-10-14T03:17:06.206Z,3.30
2022-10-14T03:18:06.207Z,4.40
2022-10-14T03:19:06.182Z,3.90
2022-10-14T03:20:06.171Z,4.40
2022-10-14T03:21:06.159Z,4.20
2022-10-14T03:22:06.147Z,4.20
2022-10-14T03:23:06.140Z,4.70
2022-10-14T03:24:06.138Z,3.80
2022-10-14T03:25:06.126Z,4.50
2022-10-14T03:26:08.519Z,3.70
2022-10-14T03:27:06.099Z,4.40
2022-10-14T03:28:06.084Z,4.10
2022-10-14T03:29:06.109Z,4.30
2022-10-14T03:30:06.080Z,4.40
2022-10-14T03:31:06.072Z,3.70
2022-10-14T03:32:06.042Z,4.70
2022-10-14T03:33:06.031Z,4.30
2022-10-14T03:34:06.027Z,3.90
2022-10-14T03:35:06.015Z,4.40
2022-10-14T03:36:06.010Z,4.20
2022-10-14T03:37:05.988Z,4.50
2022-10-14T03:38:05.976Z,4.10
2022-10-14T03:39:05.976Z,4.20
2022-10-14T03:40:05.955Z,5.00
2022-10-14T03:41:05.962Z,4.30
2022-10-14T03:42:05.956Z,4.30
2022-10-14T03:43:05.929Z,3.80
2022-10-14T03:44:05.913Z,4.40
2022-10-14T03:45:05.907Z,4.80
2022-10-14T03:46:05.891Z,4.50
2022-10-14T03:47:05.892Z,3.80
2022-10-14T03:48:05.872Z,4.30
2022-10-14T03:49:05.869Z,4.80
2022-10-14T03:50:05.852Z,4.80
2022-10-14T03:51:05.841Z,4.20
2022-10-14T03:52:05.829Z,4.70
2022-10-14T03:53:05.831Z,4.50
2022-10-14T03:54:05.807Z,4.40
2022-10-14T03:55:05.801Z,4.40
2022-10-14T03:56:05.786Z,4.10
2022-10-14T03:57:05.777Z,4.30
2022-10-14T03:58:05.763Z,4.70
2022-10-14T03:59:05.770Z,4.90
2022-10-14T04:00:05.744Z,4.90
2022-10-14T04:01:05.743Z,4.70
2022-10-14T04:02:05.787Z,5.20
2022-10-14T04:03:05.734Z,5.20
2022-10-14T04:04:05.698Z,3.80
2022-10-14T04:05:05.690Z,5.40
2022-10-14T04:06:05.689Z,4.70
2022-10-14T04:07:05.672Z,4.90
2022-10-14T04:08:05.659Z,4.80
2022-10-14T04:09:05.660Z,4.50
2022-10-14T04:10:05.636Z,4.20
2022-10-14T04:11:05.630Z,4.60
2022-10-14T04:12:05.617Z,4.60
2022-10-14T04:13:05.613Z,4.20
2022-10-14T04:14:05.594Z,5.20
2022-10-14T04:15:05.586Z,4.30
2022-10-14T04:16:05.577Z,4.90
2022-10-14T04:17:05.560Z,4.90
2022-10-14T04:18:05.554Z,4.70
2022-10-14T04:19:05.548Z,4.90
2022-10-14T04:20:05.534Z,4.80
2022-10-14T04:21:05.520Z,4.50
2022-10-14T04:22:05.511Z,5.70
2022-10-14T04:23:05.505Z,4.70
2022-10-14T04:24:08.415Z,4.50
2022-10-14T04:25:05.484Z,4.10
2022-10-14T04:26:05.467Z,4.10
2022-10-14T04:27:05.452Z,4.60
2022-10-14T04:28:05.445Z,4.80
2022-10-14T04:29:05.449Z,4.50
2022-10-14T04:30:05.426Z,4.20
2022-10-14T04:31:05.416Z,4.60
2022-10-14T04:32:05.404Z,4.50
2022-10-14T04:33:05.402Z,3.70
2022-10-14T04:34:05.393Z,4.00
2022-10-14T04:35:05.385Z,4.70
2022-10-14T04:36:05.363Z,4.70
2022-10-14T04:37:05.349Z,4.50
2022-10-14T04:38:05.362Z,4.30
2022-10-14T04:39:05.327Z,4.70
2022-10-14T04:40:05.315Z,4.20
2022-10-14T04:41:05.307Z,4.80
2022-10-14T04:42:05.299Z,4.00
2022-10-14T04:43:05.282Z,4.70
2022-10-14T04:44:05.290Z,4.40
2022-10-14T04:45:05.260Z,4.30
2022-10-14T04:46:05.254Z,4.70
2022-10-14T04:47:05.244Z,4.30
2022-10-14T04:48:05.237Z,4.40
2022-10-14T04:49:05.232Z,4.70
2022-10-14T04:50:05.259Z,4.60
2022-10-14T04:51:05.199Z,4.80
2022-10-14T04:52:05.191Z,4.50
2022-10-14T04:53:05.176Z,4.30
2022-10-14T04:54:05.180Z,4.20
2022-10-14T04:55:05.153Z,4.80
2022-10-14T04:56:05.149Z,3.80
2022-10-14T04:57:05.135Z,4.50
2022-10-14T04:58:05.126Z,4.50
2022-10-14T04:59:05.133Z,4.50
2022-10-14T05:00:05.106Z,4.60
2022-10-14T05:01:05.105Z,4.10
2022-10-14T05:02:05.258Z,4.50
2022-10-14T05:03:05.073Z,3.80
2022-10-14T05:04:05.062Z,4.20
2022-10-14T05:05:05.048Z,4.40
2022-10-14T05:06:05.040Z,4.10
2022-10-14T05:07:05.063Z,4.50
2022-10-14T05:08:05.029Z,4.30
2022-10-14T05:09:05.006Z,4.30
2022-10-14T05:10:04.996Z,4.10
2022-10-14T05:11:04.997Z,4.30
2022-10-14T05:12:04.923Z,4.30
2022-10-14T05:13:04.921Z,3.90
2022-10-14T05:14:04.922Z,4.10
2022-10-14T05:15:04.890Z,4.50
2022-10-14T05:16:04.938Z,4.20
2022-10-14T05:17:04.905Z,4.40
2022-10-14T05:18:04.888Z,4.50
2022-10-14T05:19:04.907Z,4.50
2022-10-14T05:20:04.903Z,4.50
2022-10-14T05:21:04.887Z,5.30
2022-10-14T05:22:04.876Z,3.90
2022-10-14T05:23:04.811Z,4.80
2022-10-14T05:24:04.804Z,4.90
2022-10-14T05:25:04.782Z,5.20
2022-10-14T05:26:04.773Z,4.20
2022-10-14T05:27:04.768Z,4.80
2022-10-14T05:28:04.753Z,4.10
2022-10-14T05:29:04.751Z,4.10
2022-10-14T05:30:04.735Z,4.50
2022-10-14T05:31:04.723Z,4.40
2022-10-14T05:32:04.713Z,4.80
2022-10-14T05:33:04.722Z,4.70
2022-10-14T05:34:04.694Z,4.40
2022-10-14T05:35:04.687Z,4.10
2022-10-14T05:36:04.692Z,4.40
2022-10-14T05:37:04.672Z,4.30
2022-10-14T05:38:04.651Z,3.10
2022-10-14T05:39:04.635Z,4.20
2022-10-14T05:40:04.717Z,5.00
2022-10-14T05:41:04.614Z,4.40
2022-10-14T05:42:04.607Z,4.10
2022-10-14T05:43:04.603Z,4.50
2022-10-14T05:44:04.582Z,4.40
2022-10-14T05:45:04.569Z,4.90
2022-10-14T05:46:04.561Z,4.00
2022-10-14T05:47:04.550Z,4.20
2022-10-14T05:48:04.542Z,4.50
2022-10-14T05:49:04.535Z,4.80
2022-10-14T05:50:04.531Z,4.30
2022-10-14T05:51:04.506Z,4.80
2022-10-14T05:52:04.500Z,4.50
2022-10-14T05:53:04.509Z,4.70
2022-10-14T05:54:04.482Z,4.70
2022-10-14T05:55:04.466Z,4.10
2022-10-14T05:56:04.489Z,4.60
2022-10-14T05:57:04.445Z,4.90
2022-10-14T05:58:04.436Z,4.50
2022-10-14T05:59:04.425Z,3.90
2022-10-14T06:00:04.416Z,4.50
2022-10-14T06:01:04.400Z,4.00
2022-10-14T06:02:04.424Z,4.30
2022-10-14T06:03:04.407Z,4.30
2022-10-14T06:04:04.401Z,4.50
2022-10-14T06:05:04.388Z,4.50
2022-10-14T06:06:04.356Z,4.60
2022-10-14T06:07:04.340Z,4.20
2022-10-14T06:08:04.336Z,5.00
2022-10-14T06:09:08.973Z,5.20
2022-10-14T06:11:15.132Z,4.70
2022-10-14T06:12:16.096Z,5.10
2022-10-14T06:13:16.083Z,4.40
2022-10-14T06:14:16.079Z,5.30
2022-10-14T06:15:16.064Z,4.60
2022-10-14T06:16:16.077Z,4.30
2022-10-14T06:17:17.631Z,4.50
2022-10-14T06:18:16.032Z,4.90
2022-10-14T06:19:16.022Z,4.90
2022-10-14T06:20:16.044Z,4.40
2022-10-14T06:21:15.999Z,5.10
2022-10-14T06:22:15.991Z,4.40
2022-10-14T06:23:15.977Z,4.20
2022-10-14T06:24:15.987Z,4.60
2022-10-14T06:25:15.953Z,4.50
2022-10-14T06:26:15.968Z,5.50
2022-10-14T06:27:15.928Z,3.80
2022-10-14T06:28:15.977Z,4.00
2022-10-14T06:29:15.910Z,4.20
2022-10-14T06:30:15.902Z,4.40
2022-10-14T06:31:15.913Z,4.70
2022-10-14T06:32:15.881Z,3.90
2022-10-14T06:33:15.891Z,4.80
2022-10-14T06:34:15.858Z,5.00
2022-10-14T06:35:15.845Z,4.30
2022-10-14T06:36:15.861Z,4.10
2022-10-14T06:37:15.822Z,4.40
2022-10-14T06:38:15.818Z,4.00
2022-10-14T06:39:15.831Z,5.60
2022-10-14T06:40:15.793Z,5.40
2022-10-14T06:41:15.779Z,4.70
2022-10-14T06:42:15.768Z,5.10
2022-10-14T06:43:15.754Z,4.80
2022-10-14T06:44:15.748Z,4.70
2022-10-14T06:45:15.800Z,4.70
2022-10-14T06:46:15.728Z,4.40
2022-10-14T06:47:15.712Z,4.30
2022-10-14T06:48:15.706Z,4.50
2022-10-14T06:49:15.717Z,4.20
2022-10-14T06:50:15.692Z,5.00
2022-10-14T06:51:15.679Z,4.60
2022-10-14T06:52:15.659Z,5.00
2022-10-14T06:53:15.648Z,4.50
2022-10-14T06:54:15.670Z,4.90
2022-10-14T06:55:15.667Z,4.30
2022-10-14T06:56:15.626Z,4.80
2022-10-14T06:57:15.615Z,4.30
2022-10-14T06:58:15.607Z,4.80
2022-10-14T06:59:15.582Z,4.30
2022-10-14T07:00:15.595Z,4.40
2022-10-14T07:01:15.684Z,4.30
2022-10-14T07:02:15.553Z,4.30
2022-10-14T07:03:15.560Z,4.60
2022-10-14T07:04:15.530Z,4.90
2022-10-14T07:05:15.537Z,4.40
2022-10-14T07:06:15.513Z,4.50
2022-10-14T07:07:15.492Z,4.70
2022-10-14T07:08:15.891Z,4.50
2022-10-14T07:09:15.472Z,4.60
2022-10-14T07:10:15.481Z,4.90
2022-10-14T07:11:15.449Z,4.60
2022-10-14T07:12:15.447Z,4.80
2022-10-14T07:13:15.432Z,4.50
2022-10-14T07:14:15.419Z,5.20
2022-10-14T07:15:15.427Z,4.50
2022-10-14T07:16:15.398Z,4.80
2022-10-14T07:17:15.415Z,4.60
2022-10-14T07:18:15.376Z,4.80
2022-10-14T07:19:15.364Z,4.10
2022-10-14T07:20:15.387Z,4.30
2022-10-14T07:21:15.341Z,4.60
2022-10-14T07:22:15.337Z,5.50
2022-10-14T07:23:15.317Z,5.30
2022-10-14T07:24:15.311Z,4.60
2022-10-14T07:25:15.301Z,4.60
2022-10-14T07:26:15.305Z,4.80
2022-10-14T07:27:15.281Z,4.30
2022-10-14T07:28:15.344Z,5.30
2022-10-14T07:29:15.262Z,4.80
2022-10-14T07:30:17.483Z,4.80
2022-10-14T07:31:15.242Z,4.90
2022-10-14T07:32:15.483Z,4.70
2022-10-14T07:33:15.230Z,5.40
2022-10-14T07:34:15.220Z,5.10
2022-10-14T07:35:15.198Z,5.30
2022-10-14T07:36:17.294Z,4.70
2022-10-14T07:37:15.240Z,5.00
2022-10-14T07:38:15.158Z,4.80
2022-10-14T07:39:15.168Z,4.40
2022-10-14T07:40:15.137Z,4.10
2022-10-14T07:41:15.126Z,5.10
2022-10-14T07:42:15.407Z,4.90
2022-10-14T07:43:15.278Z,5.00
2022-10-14T07:44:15.095Z,4.70
2022-10-14T07:45:15.089Z,4.60
2022-10-14T07:46:15.076Z,4.80
2022-10-14T07:47:15.347Z,4.30
2022-10-14T07:48:17.072Z,4.30
2022-10-14T07:49:15.062Z,4.80
2022-10-14T07:50:15.031Z,4.50
2022-10-14T07:51:15.035Z,4.60
2022-10-14T07:52:15.006Z,4.60
2022-10-14T07:53:14.998Z,5.00
2022-10-14T07:54:15.013Z,4.30
2022-10-14T07:55:14.975Z,4.80
2022-10-14T07:56:14.962Z,4.70
2022-10-14T07:57:14.961Z,4.60
2022-10-14T07:58:14.941Z,4.70
2022-10-14T07:59:14.933Z,4.50
2022-10-14T08:00:14.930Z,4.70
2022-10-14T08:01:14.997Z,4.60
2022-10-14T08:02:14.953Z,4.90
2022-10-14T08:03:14.898Z,4.20
2022-10-14T08:04:14.875Z,5.00
2022-10-14T08:06:13.859Z,4.60
2022-10-14T08:07:14.848Z,5.00
2022-10-14T08:08:14.832Z,4.70
2022-10-14T08:09:14.892Z,4.80
2022-10-14T08:10:14.822Z,4.50
2022-10-14T08:11:14.812Z,3.90
2022-10-14T08:12:14.793Z,4.00
2022-10-14T08:13:14.792Z,4.10
2022-10-14T08:14:14.767Z,4.10
2022-10-14T08:15:14.762Z,4.40
2022-10-14T08:16:14.755Z,5.10
2022-10-14T08:17:14.740Z,4.40
2022-10-14T08:18:14.727Z,4.90
2022-10-14T08:19:15.048Z,4.00
2022-10-14T08:20:14.864Z,4.80
2022-10-14T08:21:14.742Z,4.80
2022-10-14T08:22:14.709Z,4.60
2022-10-14T08:23:17.490Z,4.50
2022-10-14T08:24:14.671Z,4.20
2022-10-14T08:25:14.654Z,4.80
2022-10-14T08:26:14.642Z,4.30
2022-10-14T08:27:14.632Z,4.10
2022-10-14T08:28:14.669Z,4.40
2022-10-14T08:29:14.629Z,5.30
2022-10-14T08:30:14.598Z,4.60
2022-10-14T08:31:14.634Z,4.70
2022-10-14T08:32:14.576Z,4.70
2022-10-14T08:33:14.575Z,4.50
2022-10-14T08:34:14.553Z,4.60
2022-10-14T08:35:14.558Z,4.50
2022-10-14T08:36:14.530Z,5.00
2022-10-14T08:37:14.526Z,4.30
2022-10-14T08:38:14.510Z,4.30
2022-10-14T08:39:14.505Z,4.60
2022-10-14T08:40:14.502Z,4.60
2022-10-14T08:41:14.496Z,4.70
2022-10-14T08:42:14.468Z,4.10
2022-10-14T08:43:14.581Z,4.40
2022-10-14T08:44:14.506Z,4.90
2022-10-14T08:45:14.457Z,4.50
2022-10-14T08:46:14.423Z,4.40
2022-10-14T08:47:14.419Z,4.80
2022-10-14T08:48:14.406Z,4.40
2022-10-14T08:49:14.397Z,5.00
2022-10-14T08:50:14.379Z,4.90
2022-10-14T08:51:14.395Z,4.80
2022-10-14T08:52:14.361Z,4.90
2022-10-14T08:53:14.359Z,5.20
2022-10-14T08:54:14.338Z,4.90
2022-10-14T08:55:15.309Z,4.80
2022-10-14T08:56:14.333Z,5.00
2022-10-14T08:57:14.309Z,4.60
2022-10-14T08:58:14.414Z,5.10
2022-10-14T08:59:14.291Z,4.40
2022-10-14T09:00:14.270Z,4.80
2022-10-14T09:01:14.278Z,4.40
2022-10-14T09:02:14.261Z,4.00
2022-10-14T09:03:14.275Z,4.60
2022-10-14T09:04:14.283Z,4.90
2022-10-14T09:05:14.238Z,4.20
2022-10-14T09:06:14.219Z,5.00
2022-10-14T09:07:14.195Z,4.50
2022-10-14T09:08:14.199Z,4.70
2022-10-14T09:09:14.177Z,4.40
2022-10-14T09:10:14.175Z,4.90
2022-10-14T09:11:14.165Z,5.00
2022-10-14T09:12:13.137Z,4.50
2022-10-14T09:13:14.130Z,4.20
2022-10-14T09:14:14.116Z,4.00
2022-10-14T09:15:14.111Z,4.10
2022-10-14T09:16:14.096Z,5.10
2022-10-14T09:17:14.100Z,4.10
2022-10-14T09:18:14.071Z,4.30
2022-10-14T09:19:14.068Z,4.80
2022-10-14T09:20:14.077Z,4.40
2022-10-14T09:21:22.719Z,4.40
2022-10-14T09:22:14.045Z,5.00
2022-10-14T09:23:14.017Z,4.60
2022-10-14T09:24:14.005Z,4.10
2022-10-14T09:25:14.017Z,4.60
2022-10-14T09:26:13.989Z,4.40
2022-10-14T09:27:13.992Z,4.40
2022-10-14T09:28:14.251Z,4.20
2022-10-14T09:29:13.957Z,4.20
2022-10-14T09:30:13.942Z,3.80
2022-10-14T09:31:13.939Z,4.40
2022-10-14T09:32:13.940Z,4.20
2022-10-14T09:33:13.913Z,4.10
2022-10-14T09:34:13.904Z,4.30
2022-10-14T09:35:13.888Z,4.10
2022-10-14T09:36:13.872Z,4.10
2022-10-14T09:37:13.877Z,3.90
2022-10-14T09:38:13.852Z,3.60
2022-10-14T09:39:13.845Z,3.60
2022-10-14T09:40:13.832Z,3.90
2022-10-14T09:41:13.823Z,4.20
2022-10-14T09:42:13.810Z,3.80
2022-10-14T09:43:13.824Z,3.90
2022-10-14T09:44:13.787Z,3.70
2022-10-14T09:45:13.781Z,3.90
2022-10-14T09:46:13.767Z,4.40
2022-10-14T09:47:13.756Z,4.40
2022-10-14T09:48:13.763Z,4.10
2022-10-14T09:49:13.744Z,3.50
2022-10-14T09:50:13.728Z,3.90
2022-10-14T09:51:13.719Z,3.40
2022-10-14T09:52:13.699Z,3.80
2022-10-14T09:53:13.731Z,3.90
2022-10-14T09:54:13.690Z,3.90
2022-10-14T09:55:13.673Z,3.80
2022-10-14T09:56:13.660Z,4.10
2022-10-14T09:57:13.653Z,3.70
2022-10-14T09:58:13.636Z,3.90
2022-10-14T09:59:13.652Z,3.70
2022-10-14T10:00:13.613Z,3.90
2022-10-14T10:01:13.607Z,3.80
2022-10-14T10:02:13.592Z,4.00
2022-10-14T10:03:17.076Z,3.50
2022-10-14T10:04:13.605Z,3.50
2022-10-14T10:05:13.563Z,3.40
2022-10-14T10:06:13.649Z,3.70
2022-10-14T10:07:13.539Z,3.70
2022-10-14T10:08:13.533Z,5.00
2022-10-14T10:09:13.518Z,3.40
2022-10-14T10:10:13.520Z,3.40
2022-10-14T10:11:13.499Z,3.70
2022-10-14T10:12:13.484Z,3.40
2022-10-14T10:13:13.474Z,3.10
2022-10-14T10:14:13.472Z,3.60
2022-10-14T10:15:13.478Z,3.20
2022-10-14T10:16:13.462Z,3.20
2022-10-14T10:17:13.456Z,3.20
2022-10-14T10:18:13.415Z,3.30
2022-10-14T10:19:13.406Z,3.40
2022-10-14T10:20:13.400Z,3.10
2022-10-14T10:21:13.436Z,3.10
2022-10-14T10:22:13.398Z,3.40
2022-10-14T10:23:13.389Z,3.30
2022-10-14T10:24:13.351Z,3.30
2022-10-14T10:25:13.343Z,3.50
2022-10-14T10:26:13.328Z,3.30
2022-10-14T10:27:13.340Z,3.30
2022-10-14T10:28:13.311Z,2.90
2022-10-14T10:29:13.304Z,3.10
2022-10-14T10:30:13.285Z,2.70
2022-10-14T10:31:13.277Z,3.10
2022-10-14T10:32:13.304Z,3.50
2022-10-14T10:33:13.276Z,3.60
2022-10-14T10:34:13.276Z,3.20
2022-10-14T10:35:13.247Z,3.10
2022-10-14T10:36:13.256Z,2.70
2022-10-14T10:37:13.223Z,3.30
2022-10-14T10:38:13.198Z,3.00
2022-10-14T10:39:13.195Z,3.40
2022-10-14T10:40:13.201Z,3.00
2022-10-14T10:41:13.168Z,3.00
2022-10-14T10:42:13.153Z,3.20
2022-10-14T10:43:13.149Z,3.50
2022-10-14T10:44:13.178Z,3.10
2022-10-14T10:45:13.179Z,3.30
2022-10-14T10:46:13.132Z,2.90
2022-10-14T10:47:13.162Z,3.00
2022-10-14T10:48:13.115Z,2.90
2022-10-14T10:49:13.133Z,2.80
2022-10-14T10:50:13.122Z,2.30
2022-10-14T10:51:13.101Z,2.90
2022-10-14T10:52:16.146Z,3.20
2022-10-14T10:53:13.089Z,2.70
2022-10-14T10:54:13.052Z,2.70
2022-10-14T10:55:13.067Z,3.20
2022-10-14T10:56:13.053Z,2.90
2022-10-14T10:57:13.075Z,2.90
2022-10-14T10:58:13.035Z,2.90
2022-10-14T10:59:13.068Z,2.70
2022-10-14T11:00:13.019Z,2.90
2022-10-14T11:01:13.023Z,2.80
2022-10-14T11:02:12.968Z,3.50
2022-10-14T11:03:13.014Z,3.00
2022-10-14T11:04:12.943Z,2.70
2022-10-14T11:05:12.963Z,3.10
2022-10-14T11:06:12.934Z,3.20
2022-10-14T11:07:12.967Z,3.00
2022-10-14T11:08:12.905Z,3.20
2022-10-14T11:09:12.945Z,2.80
2022-10-14T11:10:12.881Z,2.50
2022-10-14T11:11:12.901Z,2.40
2022-10-14T11:12:12.870Z,2.50
2022-10-14T11:13:12.864Z,2.90
2022-10-14T11:14:12.838Z,2.50
2022-10-14T11:15:12.921Z,3.10
2022-10-14T11:16:12.816Z,2.90
2022-10-14T11:17:12.837Z,2.80
2022-10-14T11:18:12.826Z,2.60
2022-10-14T11:19:14.610Z,2.60
2022-10-14T11:20:12.804Z,2.70
2022-10-14T11:21:12.791Z,3.40
2022-10-14T11:22:12.751Z,3.10
2022-10-14T11:23:12.791Z,3.10
2022-10-14T11:24:12.755Z,2.80
2022-10-14T11:25:12.756Z,3.10
2022-10-14T11:26:12.733Z,2.70
2022-10-14T11:27:12.755Z,2.90
2022-10-14T11:28:12.681Z,2.50
2022-10-14T11:29:12.667Z,2.60
2022-10-14T11:30:12.655Z,2.90
2022-10-14T11:31:12.649Z,2.90
2022-10-14T11:32:12.678Z,2.50
2022-10-14T11:33:12.659Z,2.60
2022-10-14T11:34:12.590Z,2.60
2022-10-14T11:35:12.583Z,3.00
2022-10-14T11:36:12.577Z,2.30
2022-10-14T11:37:12.561Z,3.00
2022-10-14T11:38:12.568Z,2.50
2022-10-14T11:39:12.538Z,2.40
2022-10-14T11:40:12.522Z,2.30
2022-10-14T11:41:12.517Z,2.40
2022-10-14T11:42:12.522Z,3.10
2022-10-14T11:43:12.493Z,2.90
2022-10-14T11:44:12.503Z,2.60
2022-10-14T11:45:14.203Z,2.30
2022-10-14T11:46:12.478Z,2.20
2022-10-14T11:47:12.486Z,2.80
2022-10-14T11:48:12.443Z,2.50
2022-10-14T11:49:12.431Z,2.70
2022-10-14T11:50:12.466Z,2.60
2022-10-14T11:51:12.427Z,2.20
2022-10-14T11:52:12.400Z,3.00
2022-10-14T11:53:12.386Z,2.80
2022-10-14T11:54:12.401Z,2.40
2022-10-14T11:55:14.602Z,2.50
2022-10-14T11:56:12.376Z,2.40
2022-10-14T11:57:12.341Z,2.30
2022-10-14T11:58:12.364Z,2.60
2022-10-14T11:59:12.330Z,2.60
2022-10-14T12:00:12.349Z,2.90
2022-10-14T12:01:12.300Z,2.70
2022-10-14T12:02:12.375Z,2.60
2022-10-14T12:03:12.342Z,2.50
2022-10-14T12:04:12.289Z,2.80
2022-10-14T12:05:12.260Z,3.30
2022-10-14T12:06:12.274Z,2.30
2022-10-14T12:07:12.237Z,2.70
2022-10-14T12:08:12.235Z,2.40
2022-10-14T12:09:12.219Z,2.10
2022-10-14T12:10:12.231Z,2.70
2022-10-14T12:11:12.193Z,2.60
2022-10-14T12:12:12.183Z,2.80
2022-10-14T12:13:12.268Z,2.30
2022-10-14T12:14:12.166Z,2.60
2022-10-14T12:15:12.177Z,2.70
2022-10-14T12:16:12.151Z,2.40
2022-10-14T12:17:14.729Z,2.40
2022-10-14T12:18:12.136Z,2.40
2022-10-14T12:19:12.107Z,2.40
2022-10-14T12:20:12.127Z,2.40
2022-10-14T12:21:12.088Z,2.30
2022-10-14T12:22:12.079Z,2.40
2022-10-14T12:23:12.083Z,2.90
2022-10-14T12:24:12.062Z,2.30
2022-10-14T12:25:12.076Z,2.20
2022-10-14T12:26:12.042Z,2.30
2022-10-14T12:27:12.022Z,2.20
2022-10-14T12:28:12.013Z,2.30
2022-10-14T12:29:12.084Z,2.20
2022-10-14T12:30:11.994Z,2.20
2022-10-14T12:31:12.015Z,2.50
2022-10-14T12:32:11.976Z,2.30
2022-10-14T12:33:11.958Z,2.40
2022-10-14T12:34:11.971Z,2.30
2022-10-14T12:35:11.934Z,2.60
2022-10-14T12:36:11.933Z,2.30
2022-10-14T12:37:11.935Z,2.40
2022-10-14T12:38:11.910Z,2.30
2022-10-14T12:39:11.891Z,2.50
2022-10-14T12:40:11.964Z,2.40
2022-10-14T12:41:11.873Z,2.00
2022-10-14T12:42:11.890Z,2.50
2022-10-14T12:43:11.847Z,2.70
2022-10-14T12:44:11.841Z,2.60
2022-10-14T12:45:11.828Z,2.30
2022-10-14T12:46:11.819Z,2.50
2022-10-14T12:47:11.865Z,2.30
2022-10-14T12:48:11.802Z,2.40
2022-10-14T12:49:12.198Z,2.80
2022-10-14T12:50:11.775Z,2.80
2022-10-14T12:51:11.761Z,2.40
2022-10-14T12:52:11.751Z,2.90
2022-10-14T12:53:11.755Z,2.60
2022-10-14T12:54:11.733Z,2.60
2022-10-14T12:55:11.737Z,2.40
2022-10-14T12:56:11.708Z,2.50
2022-10-14T12:57:11.696Z,2.50
2022-10-14T12:58:11.687Z,2.30
2022-10-14T12:59:11.751Z,2.20
2022-10-14T13:00:11.665Z,2.80
2022-10-14T13:01:11.712Z,2.50
2022-10-14T13:02:11.643Z,2.10
2022-10-14T13:03:11.630Z,2.50
2022-10-14T13:04:13.132Z,2.50
2022-10-14T13:05:11.645Z,2.10
2022-10-14T13:06:11.732Z,2.50
2022-10-14T13:07:38.903Z,2.50
2022-10-14T13:08:11.606Z,2.30
2022-10-14T13:09:11.563Z,2.40
2022-10-14T13:10:11.556Z,2.60
2022-10-14T13:11:11.571Z,2.50
2022-10-14T13:12:11.535Z,2.30
2022-10-14T13:13:11.522Z,2.20
2022-10-14T13:14:11.515Z,2.20
2022-10-14T13:15:11.499Z,2.70
2022-10-14T13:16:11.521Z,2.50
2022-10-14T13:17:13.504Z,2.20
2022-10-14T13:18:11.467Z,2.50
2022-10-14T13:19:11.453Z,2.30
2022-10-14T13:20:11.449Z,2.10